createdAt,value
2023-05-08T00:01:42.558Z,98939.72
2023-05-08T00:04:09.015Z,98939.19
2023-05-08T00:06:35.539Z,98931.94
2023-05-08T00:09:01.891Z,98927.78
2023-05-08T00:11:28.234Z,98927.31
2023-05-08T00:13:54.612Z,98924.19
2023-05-08T00:16:20.996Z,98921.91
2023-05-08T00:18:47.334Z,98913.81
2023-05-08T00:21:13.660Z,98924.59
2023-05-08T00:23:39.995Z,98899.31
2023-05-08T00:26:06.340Z,98917.88
2023-05-08T00:28:32.715Z,98921.47
2023-05-08T00:31:02.295Z,98910.00
2023-05-08T00:33:29.831Z,98919.31
2023-05-08T00:36:03.001Z,98906.28
2023-05-08T00:38:34.250Z,98922.97
2023-05-08T00:41:00.812Z,98920.78
2023-05-08T00:43:27.554Z,98915.19
2023-05-08T00:45:59.365Z,98929.19
2023-05-08T00:48:28.738Z,98933.06
2023-05-08T00:50:55.549Z,98902.03
2023-05-08T00:53:22.701Z,98909.19
2023-05-08T00:55:50.513Z,98919.13
2023-05-08T00:58:16.948Z,98912.75
2023-05-08T01:00:44.729Z,98921.44
2023-05-08T01:03:12.231Z,98918.06
2023-05-08T01:05:38.733Z,98918.72
2023-05-08T01:08:05.335Z,98919.50
2023-05-08T01:10:42.925Z,98903.97
2023-05-08T01:13:20.491Z,98908.91
2023-05-08T01:15:53.143Z,98916.25
2023-05-08T01:18:27.024Z,98904.19
2023-05-08T01:20:58.615Z,98913.50
2023-05-08T01:23:38.585Z,98914.28
2023-05-08T01:26:11.822Z,98928.41
2023-05-08T01:29:06.325Z,98914.41
2023-05-08T01:31:51.938Z,98906.38
2023-05-08T01:34:22.545Z,98911.34
2023-05-08T01:36:56.031Z,98903.59
2023-05-08T01:39:31.400Z,98907.63
2023-05-08T01:42:01.939Z,98903.13
2023-05-08T01:44:41.644Z,98916.31
2023-05-08T01:47:09.802Z,98928.91
2023-05-08T01:49:45.091Z,98910.31
2023-05-08T01:52:45.449Z,98924.88
2023-05-08T01:55:16.370Z,98929.88
2023-05-08T01:57:47.395Z,98923.66
2023-05-08T02:00:15.197Z,98932.97
2023-05-08T02:02:42.488Z,98945.72
2023-05-08T02:05:09.494Z,98942.63
2023-05-08T02:07:36.305Z,98943.41
2023-05-08T02:10:03.525Z,98931.94
2023-05-08T02:12:31.180Z,98946.81
2023-05-08T02:14:59.331Z,98936.47
2023-05-08T02:17:26.249Z,98954.31
2023-05-08T02:19:55.028Z,98954.16
2023-05-08T02:22:23.300Z,98954.63
2023-05-08T02:24:50.237Z,98946.88
2023-05-08T02:27:16.807Z,98958.03
2023-05-08T02:29:43.182Z,98945.78
2023-05-08T02:32:09.854Z,98953.34
2023-05-08T02:34:36.562Z,98948.25
2023-05-08T02:37:03.946Z,98953.84
2023-05-08T02:39:31.568Z,98947.94
2023-05-08T02:41:58.126Z,98951.69
2023-05-08T02:44:24.577Z,98959.41
2023-05-08T02:46:59.735Z,98963.13
2023-05-08T02:49:32.071Z,98962.84
2023-05-08T02:52:10.742Z,98964.19
2023-05-08T02:54:42.952Z,98951.34
2023-05-08T02:57:37.711Z,98960.06
2023-05-08T03:00:07.246Z,98944.34
2023-05-08T03:02:38.105Z,98958.94
2023-05-08T03:05:13.909Z,98963.44
2023-05-08T03:07:41.087Z,98968.84
2023-05-08T03:10:13.936Z,98966.50
2023-05-08T03:12:44.674Z,98977.81
2023-05-08T03:15:19.371Z,98971.78
2023-05-08T03:17:46.248Z,98968.69
2023-05-08T03:20:16.028Z,98965.88
2023-05-08T03:22:43.638Z,98961.34
2023-05-08T03:25:10.750Z,98980.00
2023-05-08T03:27:37.869Z,98975.06
2023-05-08T03:30:05.508Z,98961.50
2023-05-08T03:32:32.432Z,98971.00
2023-05-08T03:35:01.088Z,98957.03
2023-05-08T03:37:27.978Z,98971.09
2023-05-08T03:39:57.822Z,98972.84
2023-05-08T03:42:25.258Z,98961.09
2023-05-08T03:44:52.294Z,98968.66
2023-05-08T03:47:19.836Z,98978.16
2023-05-08T03:49:46.892Z,98970.91
2023-05-08T03:52:13.739Z,98967.84
2023-05-08T03:54:40.250Z,98968.44
2023-05-08T03:57:06.670Z,98972.75
2023-05-08T03:59:47.197Z,98967.28
2023-05-08T04:02:29.868Z,98970.06
2023-05-08T04:05:03.715Z,98978.72
2023-05-08T04:07:47.328Z,98983.09
2023-05-08T04:10:21.767Z,98988.78
2023-05-08T04:13:00.496Z,98983.72
2023-05-08T04:15:29.361Z,98973.72
2023-05-08T04:18:00.070Z,98991.56
2023-05-08T04:20:27.706Z,99001.44
2023-05-08T04:22:54.790Z,98987.72
2023-05-08T04:25:21.287Z,99001.13
2023-05-08T04:27:48.461Z,98998.97
2023-05-08T04:30:15.114Z,99004.94
2023-05-08T04:32:43.467Z,98995.47
2023-05-08T04:35:11.542Z,99015.47
2023-05-08T04:37:38.107Z,99004.97
2023-05-08T04:40:04.843Z,99005.84
2023-05-08T04:42:31.326Z,99006.22
2023-05-08T04:44:57.674Z,99012.59
2023-05-08T04:47:24.166Z,98995.53
2023-05-08T04:49:50.600Z,99020.94
2023-05-08T04:52:16.925Z,99024.56
2023-05-08T04:54:43.261Z,99012.19
2023-05-08T04:57:09.665Z,99022.75
2023-05-08T04:59:36.010Z,99022.91
2023-05-08T05:02:02.522Z,99028.34
2023-05-08T05:04:28.998Z,99017.16
2023-05-08T05:06:55.303Z,99019.94
2023-05-08T05:09:21.622Z,99025.94
2023-05-08T05:11:47.939Z,99018.47
2023-05-08T05:14:14.270Z,99025.28
2023-05-08T05:16:40.652Z,99000.84
2023-05-08T05:19:07.016Z,99022.25
2023-05-08T05:21:33.336Z,99011.44
2023-05-08T05:23:59.708Z,99022.16
2023-05-08T05:26:26.030Z,99010.63
2023-05-08T05:28:52.355Z,99018.41
2023-05-08T05:31:18.829Z,99018.69
2023-05-08T05:33:45.242Z,99024.69
2023-05-08T05:36:11.593Z,99010.38
2023-05-08T05:38:38.013Z,99020.19
2023-05-08T05:41:04.346Z,99009.25
2023-05-08T05:43:30.670Z,99028.88
2023-05-08T05:46:03.796Z,99033.25
2023-05-08T05:48:30.128Z,99028.78
2023-05-08T05:50:56.497Z,99023.03
2023-05-08T05:53:22.938Z,99032.91
2023-05-08T05:55:49.267Z,99035.31
2023-05-08T05:58:15.583Z,99038.34
2023-05-08T06:00:42.559Z,99039.34
2023-05-08T06:03:09.202Z,99044.22
2023-05-08T06:05:35.605Z,99044.47
2023-05-08T06:08:01.942Z,99038.91
2023-05-08T06:10:28.349Z,99044.31
2023-05-08T06:12:54.718Z,99041.44
2023-05-08T06:15:21.462Z,99049.59
2023-05-08T06:17:47.870Z,99043.63
2023-05-08T06:20:14.214Z,99045.28
2023-05-08T06:22:40.617Z,99035.63
2023-05-08T06:25:07.646Z,99051.59
2023-05-08T06:27:34.303Z,99038.78
2023-05-08T06:30:00.632Z,99052.94
2023-05-08T06:32:27.085Z,99046.09
2023-05-08T06:34:53.496Z,99032.69
2023-05-08T06:37:19.826Z,99042.47
2023-05-08T06:39:46.786Z,99033.91
2023-05-08T06:42:13.213Z,99040.88
2023-05-08T06:44:39.738Z,99044.75
2023-05-08T06:47:06.396Z,99044.81
2023-05-08T06:49:32.803Z,99037.28
2023-05-08T06:51:59.138Z,99045.34
2023-05-08T06:54:25.471Z,99027.50
2023-05-08T06:56:52.962Z,99046.13
2023-05-08T06:59:19.382Z,99051.97
2023-05-08T07:01:45.925Z,99051.44
2023-05-08T07:04:12.390Z,99051.34
2023-05-08T07:06:38.893Z,99049.13
2023-05-08T07:09:05.280Z,99056.09
2023-05-08T07:11:31.625Z,99047.16
2023-05-08T07:13:58.961Z,99042.59
2023-05-08T07:16:25.419Z,99041.34
2023-05-08T07:18:51.798Z,99029.28
2023-05-08T07:21:18.561Z,99052.81
2023-05-08T07:23:46.002Z,99055.94
2023-05-08T07:26:12.336Z,99052.53
2023-05-08T07:28:38.755Z,99053.13
2023-05-08T07:31:05.598Z,99060.91
2023-05-08T07:33:31.962Z,99053.53
2023-05-08T07:35:58.284Z,99058.50
2023-05-08T07:38:24.642Z,99056.25
2023-05-08T07:40:50.953Z,99055.06
2023-05-08T07:43:17.290Z,99056.38
2023-05-08T07:45:43.622Z,99038.94
2023-05-08T07:48:10.006Z,99056.19
2023-05-08T07:50:36.336Z,99057.44
2023-05-08T07:53:02.672Z,99059.03
2023-05-08T07:55:29.056Z,99050.09
2023-05-08T07:57:55.430Z,99057.72
2023-05-08T08:00:21.853Z,99054.13
2023-05-08T08:02:48.417Z,99053.44
2023-05-08T08:05:15.159Z,99049.84
2023-05-08T08:07:41.837Z,99046.44
2023-05-08T08:10:08.627Z,99043.69
2023-05-08T08:12:35.063Z,99053.97
2023-05-08T08:15:01.534Z,99055.88
2023-05-08T08:17:28.936Z,99048.75
2023-05-08T08:19:55.757Z,99050.28
2023-05-08T08:22:22.086Z,99055.78
2023-05-08T08:24:48.440Z,99053.22
2023-05-08T08:27:14.792Z,99049.22
2023-05-08T08:29:41.152Z,99050.91
2023-05-08T08:32:07.485Z,99059.78
2023-05-08T08:34:33.884Z,99053.16
2023-05-08T08:37:00.368Z,99052.06
2023-05-08T08:39:26.792Z,99044.47
2023-05-08T08:41:53.156Z,99042.44
2023-05-08T08:44:19.533Z,99052.81
2023-05-08T08:46:51.114Z,99060.06
2023-05-08T08:49:24.593Z,99057.22
2023-05-08T08:51:53.078Z,99044.31
2023-05-08T08:54:24.599Z,99047.13
2023-05-08T08:56:51.432Z,99039.06
2023-05-08T08:59:18.385Z,99036.16
2023-05-08T09:01:45.810Z,99044.97
2023-05-08T09:04:12.375Z,99041.47
2023-05-08T09:06:39.305Z,99048.78
2023-05-08T09:09:05.717Z,99055.66
2023-05-08T09:11:32.887Z,99051.63
2023-05-08T09:13:59.488Z,99045.28
2023-05-08T09:16:28.308Z,99052.09
2023-05-08T09:18:54.943Z,99045.06
2023-05-08T09:21:21.342Z,99033.28
2023-05-08T09:23:58.347Z,99043.22
2023-05-08T09:26:32.737Z,99055.06
2023-05-08T09:29:19.350Z,99039.34
2023-05-08T09:31:47.826Z,99048.16
2023-05-08T09:34:30.897Z,99036.38
2023-05-08T09:37:06.277Z,99042.78
2023-05-08T09:39:32.636Z,99033.38
2023-05-08T09:42:00.754Z,99045.94
2023-05-08T09:44:27.347Z,99045.00
2023-05-08T09:47:10.426Z,99029.34
2023-05-08T09:49:37.806Z,99031.88
2023-05-08T09:52:04.351Z,99037.19
2023-05-08T09:54:30.741Z,99023.91
2023-05-08T09:56:57.072Z,99038.50
2023-05-08T09:59:28.239Z,99034.09
2023-05-08T10:01:55.592Z,99037.50
2023-05-08T10:04:35.818Z,99034.00
2023-05-08T10:07:02.700Z,99024.53
2023-05-08T10:09:39.272Z,99038.09
2023-05-08T10:12:13.646Z,99025.78
2023-05-08T10:14:39.997Z,99026.34
2023-05-08T10:17:07.936Z,99029.06
2023-05-08T10:19:37.204Z,99025.53
2023-05-08T10:22:04.014Z,99029.44
2023-05-08T10:24:33.943Z,99017.13
2023-05-08T10:27:20.480Z,99034.78
2023-05-08T10:29:54.301Z,99027.03
2023-05-08T10:32:21.873Z,99026.16
2023-05-08T10:34:59.209Z,99016.19
2023-05-08T10:37:29.237Z,99025.84
2023-05-08T10:39:57.575Z,99031.22
2023-05-08T10:42:25.910Z,99031.22
2023-05-08T10:44:53.208Z,99029.31
2023-05-08T10:47:39.219Z,99020.50
2023-05-08T10:50:28.499Z,99022.38
2023-05-08T10:53:06.288Z,99015.13
2023-05-08T10:55:36.050Z,99013.59
2023-05-08T10:58:16.905Z,99015.13
2023-05-08T11:00:49.304Z,99022.78
2023-05-08T11:03:29.986Z,99011.69
2023-05-08T11:06:00.177Z,99006.72
2023-05-08T11:08:27.871Z,99007.78
2023-05-08T11:11:00.330Z,99012.03
2023-05-08T11:13:37.393Z,98999.69
2023-05-08T11:16:04.743Z,99009.25
2023-05-08T11:18:45.714Z,99008.94
2023-05-08T11:21:20.380Z,99002.03
2023-05-08T11:23:56.295Z,99002.69
2023-05-08T11:26:38.435Z,99001.56
2023-05-08T11:29:16.335Z,98980.41
2023-05-08T11:31:49.679Z,98993.09
2023-05-08T11:34:42.006Z,98996.59
2023-05-08T11:37:20.969Z,98983.41
2023-05-08T11:39:48.160Z,98998.09
2023-05-08T11:42:26.792Z,99001.16
2023-05-08T11:45:03.606Z,98996.13
2023-05-08T11:47:42.673Z,98991.91
2023-05-08T11:50:10.317Z,98996.34
2023-05-08T11:52:38.347Z,98975.00
2023-05-08T11:55:06.065Z,98993.97
2023-05-08T11:57:32.404Z,98973.88
2023-05-08T12:00:03.827Z,98991.94
2023-05-08T12:02:36.969Z,98990.84
2023-05-08T12:05:03.494Z,98980.78
2023-05-08T12:07:30.096Z,98991.38
2023-05-08T12:09:56.447Z,99002.22
2023-05-08T12:12:22.798Z,98997.75
2023-05-08T12:14:49.964Z,98992.69
2023-05-08T12:17:19.573Z,98982.38
2023-05-08T12:19:46.024Z,98983.78
2023-05-08T12:22:12.366Z,98993.16
2023-05-08T12:24:39.328Z,98978.81
2023-05-08T12:27:05.817Z,98998.44
2023-05-08T12:29:35.724Z,98989.31
2023-05-08T12:32:02.178Z,98993.34
2023-05-08T12:34:28.845Z,98979.53
2023-05-08T12:37:04.677Z,98975.22
2023-05-08T12:39:35.129Z,98961.28
2023-05-08T12:42:01.478Z,98986.03
2023-05-08T12:44:27.859Z,98988.50
2023-05-08T12:46:55.942Z,98968.78
2023-05-08T12:49:31.786Z,98990.50
2023-05-08T12:52:08.517Z,98981.97
2023-05-08T12:54:39.918Z,98985.66
2023-05-08T12:57:10.802Z,98986.78
2023-05-08T12:59:37.154Z,98956.09
2023-05-08T13:02:03.545Z,98974.44
2023-05-08T13:04:30.203Z,98974.22
2023-05-08T13:06:57.238Z,98958.78
2023-05-08T13:09:23.580Z,98973.25
2023-05-08T13:11:49.908Z,98969.38
2023-05-08T13:14:16.255Z,98967.78
2023-05-08T13:16:44.276Z,98965.81
2023-05-08T13:19:10.672Z,98963.09
2023-05-08T13:21:37.019Z,98956.91
2023-05-08T13:24:03.448Z,98952.06
2023-05-08T13:26:30.385Z,98953.16
2023-05-08T13:28:56.799Z,98943.97
2023-05-08T13:31:23.294Z,98950.81
2023-05-08T13:33:49.671Z,98950.88
2023-05-08T13:36:16.009Z,98941.72
2023-05-08T13:38:42.327Z,98941.50
2023-05-08T13:41:08.645Z,98937.03
2023-05-08T13:43:34.972Z,98947.59
2023-05-08T13:46:01.366Z,98943.44
2023-05-08T13:48:27.732Z,98950.56
2023-05-08T13:50:54.119Z,98947.16
2023-05-08T13:53:20.461Z,98922.53
2023-05-08T13:55:46.810Z,98937.38
2023-05-08T13:58:13.150Z,98946.91
2023-05-08T14:00:39.577Z,98942.66
2023-05-08T14:03:05.971Z,98935.22
2023-05-08T14:05:32.379Z,98940.25
2023-05-08T14:07:58.699Z,98918.38
2023-05-08T14:10:25.023Z,98934.75
2023-05-08T14:12:51.413Z,98931.81
2023-05-08T14:15:17.758Z,98928.72
2023-05-08T14:17:44.142Z,98904.16
2023-05-08T14:20:11.944Z,98929.56
2023-05-08T14:22:38.558Z,98929.06
2023-05-08T14:25:05.530Z,98929.56
2023-05-08T14:27:31.881Z,98925.38
2023-05-08T14:29:58.220Z,98916.19
2023-05-08T14:32:24.589Z,98914.59
2023-05-08T14:34:50.947Z,98918.78
2023-05-08T14:37:17.270Z,98921.72
2023-05-08T14:39:43.652Z,98913.09
2023-05-08T14:44:39.239Z,98904.22
2023-05-08T14:47:05.655Z,98907.63
2023-05-08T14:52:18.292Z,98912.00
2023-05-08T14:54:44.940Z,98928.88
2023-05-08T14:57:11.592Z,98920.47
2023-05-08T14:59:43.558Z,98918.22
2023-05-08T15:02:15.640Z,98924.41
2023-05-08T15:04:41.993Z,98923.22
2023-05-08T15:07:08.343Z,98917.16
2023-05-08T15:09:34.671Z,98915.63
2023-05-08T15:12:01.044Z,98902.66
2023-05-08T15:14:27.374Z,98913.41
2023-05-08T15:16:53.708Z,98905.03
2023-05-08T15:19:20.032Z,98911.94
2023-05-08T15:21:46.376Z,98897.00
2023-05-08T15:24:12.690Z,98921.53
2023-05-08T15:26:39.022Z,98894.69
2023-05-08T15:29:05.358Z,98919.16
2023-05-08T15:31:31.718Z,98915.38
2023-05-08T15:33:58.059Z,98920.78
2023-05-08T15:36:25.270Z,98897.81
2023-05-08T15:38:52.825Z,98912.34
2023-05-08T15:41:19.170Z,98913.53
2023-05-08T15:43:46.315Z,98922.00
2023-05-08T15:46:12.664Z,98914.72
2023-05-08T15:48:39.014Z,98918.19
2023-05-08T15:51:05.351Z,98912.44
2023-05-08T15:53:32.928Z,98911.69
2023-05-08T15:55:59.346Z,98895.22
2023-05-08T15:58:25.692Z,98912.81
2023-05-08T16:00:52.291Z,98895.97
2023-05-08T16:03:18.824Z,98909.78
2023-05-08T16:05:46.550Z,98914.75
2023-05-08T16:08:13.312Z,98908.63
2023-05-08T16:10:40.516Z,98905.97
2023-05-08T16:13:06.841Z,98910.19
2023-05-08T16:15:33.321Z,98904.06
2023-05-08T16:17:59.705Z,98909.03
2023-05-08T16:20:26.081Z,98886.44
2023-05-08T16:22:53.647Z,98895.22
2023-05-08T16:25:20.107Z,98914.75
2023-05-08T16:27:46.450Z,98905.97
2023-05-08T16:30:13.018Z,98902.91
2023-05-08T16:32:39.382Z,98910.16
2023-05-08T16:35:06.912Z,98908.63
2023-05-08T16:37:33.735Z,98909.41
2023-05-08T16:40:00.197Z,98907.91
2023-05-08T16:42:26.600Z,98913.63
2023-05-08T16:44:52.909Z,98917.44
2023-05-08T16:47:19.240Z,98920.13
2023-05-08T16:49:45.582Z,98926.25
2023-05-08T16:52:11.918Z,98921.66
2023-05-08T16:54:38.243Z,98922.41
2023-05-08T16:57:04.578Z,98918.97
2023-05-08T16:59:30.928Z,98927.00
2023-05-08T17:01:57.242Z,98925.47
2023-05-08T17:04:23.612Z,98925.47
2023-05-08T17:06:49.966Z,98920.09
2023-05-08T17:09:16.279Z,98924.72
2023-05-08T17:11:42.688Z,98925.44
2023-05-08T17:14:09.036Z,98929.25
2023-05-08T17:16:35.394Z,98914.34
2023-05-08T17:19:01.798Z,98919.31
2023-05-08T17:21:28.161Z,98913.19
2023-05-08T17:23:54.511Z,98919.69
2023-05-08T17:26:20.854Z,98924.66
2023-05-08T17:28:47.221Z,98928.09
2023-05-08T17:31:13.554Z,98929.22
2023-05-08T17:33:39.873Z,98918.47
2023-05-08T17:36:06.603Z,98920.03
2023-05-08T17:38:32.963Z,98926.56
2023-05-08T17:40:59.293Z,98931.53
2023-05-08T17:43:25.620Z,98921.56
2023-05-08T17:45:51.976Z,98932.22
2023-05-08T17:48:18.338Z,98935.31
2023-05-08T17:50:44.666Z,98912.69
2023-05-08T17:53:11.042Z,98939.53
2023-05-08T17:55:37.364Z,98940.66
2023-05-08T17:58:03.688Z,98947.47
2023-05-08T18:00:30.019Z,98939.06
2023-05-08T18:02:56.524Z,98945.97
2023-05-08T18:05:22.922Z,98942.13
2023-05-08T18:07:49.254Z,98925.19
2023-05-08T18:10:15.866Z,98950.09
2023-05-08T18:12:42.496Z,98945.13
2023-05-08T18:15:09.260Z,98948.16
2023-05-08T18:17:35.587Z,98938.91
2023-05-08T18:20:02.364Z,98938.94
2023-05-08T18:22:28.729Z,98937.00
2023-05-08T18:24:55.078Z,98947.56
2023-05-08T18:27:21.393Z,98948.66
2023-05-08T18:29:47.729Z,98945.22
2023-05-08T18:32:14.049Z,98946.16
2023-05-08T18:34:40.387Z,98942.28
2023-05-08T18:37:06.752Z,98946.06
2023-05-08T18:39:33.104Z,98946.44
2023-05-08T18:41:59.430Z,98950.53
2023-05-08T18:44:25.840Z,98945.03
2023-05-08T18:46:52.151Z,98958.72
2023-05-08T18:49:18.476Z,98956.66
2023-05-08T18:51:44.857Z,98956.81
2023-05-08T18:54:11.185Z,98950.63
2023-05-08T18:56:37.520Z,98960.47
2023-05-08T18:59:04.915Z,98956.59
2023-05-08T19:01:31.260Z,98963.78
2023-05-08T19:03:57.599Z,98958.56
2023-05-08T19:06:24.141Z,98959.13
2023-05-08T19:08:50.492Z,98958.88
2023-05-08T19:11:16.824Z,98956.88
2023-05-08T19:13:43.150Z,98949.44
2023-05-08T19:16:09.535Z,98965.19
2023-05-08T19:18:35.902Z,98943.28
2023-05-08T19:21:02.289Z,98963.31
2023-05-08T19:23:28.732Z,98968.09
2023-05-08T19:25:55.073Z,98954.34
2023-05-08T19:28:21.406Z,98956.72
2023-05-08T19:30:47.758Z,98965.59
2023-05-08T19:33:14.110Z,98958.53
2023-05-08T19:35:40.450Z,98961.13
2023-05-08T19:38:06.811Z,98943.78
2023-05-08T19:40:36.403Z,98953.31
2023-05-08T19:43:11.019Z,98961.69
2023-05-08T19:45:37.393Z,98958.72
2023-05-08T19:48:08.199Z,98970.19
2023-05-08T19:50:39.598Z,98959.31
2023-05-08T19:53:05.910Z,98963.16
2023-05-08T19:55:32.226Z,98957.63
2023-05-08T19:57:58.635Z,98966.09
2023-05-08T20:00:24.975Z,98974.31
2023-05-08T20:02:51.386Z,98974.88
2023-05-08T20:05:22.506Z,98974.88
2023-05-08T20:07:49.562Z,98973.31
2023-05-08T20:10:17.066Z,98969.00
2023-05-08T20:12:43.529Z,98970.03
2023-05-08T20:15:10.235Z,98960.03
2023-05-08T20:17:36.629Z,98969.78
2023-05-08T20:20:03.180Z,98970.88
2023-05-08T20:22:29.535Z,98980.63
2023-05-08T20:24:55.858Z,98977.50
2023-05-08T20:27:22.188Z,98968.81
2023-05-08T20:29:48.500Z,98975.38
2023-05-08T20:32:15.073Z,98982.94
2023-05-08T20:34:41.556Z,98985.41
2023-05-08T20:37:07.987Z,98988.44
2023-05-08T20:39:34.296Z,98976.69
2023-05-08T20:42:00.625Z,98978.13
2023-05-08T20:44:26.959Z,98966.66
2023-05-08T20:46:54.381Z,98966.63
2023-05-08T20:49:21.865Z,98973.81
2023-05-08T20:51:48.206Z,98976.28
2023-05-08T20:54:14.525Z,98966.56
2023-05-08T20:56:40.885Z,98958.03
2023-05-08T20:59:07.213Z,98961.06
2023-05-08T21:01:33.681Z,98962.44
2023-05-08T21:04:00.050Z,98962.44
2023-05-08T21:06:26.374Z,98956.44
2023-05-08T21:08:52.707Z,98954.75
2023-05-08T21:11:19.036Z,98954.88
2023-05-08T21:13:45.426Z,98961.53
2023-05-08T21:16:11.790Z,98952.81
2023-05-08T21:18:38.127Z,98959.56
2023-05-08T21:21:04.472Z,98954.91
2023-05-08T21:23:30.831Z,98959.25
2023-05-08T21:25:57.154Z,98945.47
2023-05-08T21:28:23.553Z,98942.25
2023-05-08T21:30:49.888Z,98940.38
2023-05-08T21:33:16.278Z,98947.69
2023-05-08T21:35:43.088Z,98946.75
2023-05-08T21:38:09.437Z,98947.16
2023-05-08T21:40:35.858Z,98932.59
2023-05-08T21:43:02.222Z,98933.44
2023-05-08T21:45:32.267Z,98942.81
2023-05-08T21:47:59.235Z,98935.06
2023-05-08T21:50:26.016Z,98943.75
2023-05-08T21:52:52.441Z,98941.66
2023-05-08T21:55:19.356Z,98935.06
2023-05-08T21:57:45.690Z,98935.00
2023-05-08T22:00:12.540Z,98938.91
2023-05-08T22:02:38.990Z,98926.84
2023-05-08T22:05:05.714Z,98930.09
2023-05-08T22:07:32.052Z,98924.06
2023-05-08T22:09:58.525Z,98920.91
2023-05-08T22:12:24.863Z,98910.44
2023-05-08T22:14:51.199Z,98925.00
2023-05-08T22:17:17.544Z,98925.63
2023-05-08T22:19:43.883Z,98923.47
2023-05-08T22:22:10.192Z,98922.03
2023-05-08T22:24:36.524Z,98928.28
2023-05-08T22:27:02.852Z,98918.72
2023-05-08T22:29:29.251Z,98919.44
2023-05-08T22:31:55.663Z,98920.84
2023-05-08T22:34:22.052Z,98904.91
2023-05-08T22:36:48.390Z,98910.81
2023-05-08T22:39:14.787Z,98901.53
2023-05-08T22:41:41.177Z,98905.91
2023-05-08T22:44:07.701Z,98900.09
2023-05-08T22:46:34.473Z,98899.91
2023-05-08T22:49:00.988Z,98897.41
2023-05-08T22:51:27.353Z,98898.81
2023-05-08T22:53:54.308Z,98892.88
2023-05-08T22:56:20.626Z,98902.16
2023-05-08T22:58:46.954Z,98895.16
2023-05-08T23:01:13.305Z,98892.72
2023-05-08T23:03:39.678Z,98875.59
2023-05-08T23:06:06.089Z,98897.00
2023-05-08T23:08:32.451Z,98885.03
2023-05-08T23:10:59.107Z,98878.50
2023-05-08T23:13:25.598Z,98886.44
2023-05-08T23:15:52.027Z,98879.88
2023-05-08T23:18:18.369Z,98872.84
2023-05-08T23:20:44.805Z,98869.66
2023-05-08T23:23:11.146Z,98874.56
2023-05-08T23:25:37.639Z,98865.41
2023-05-08T23:28:03.984Z,98868.16
2023-05-08T23:30:30.306Z,98849.31
2023-05-08T23:32:56.665Z,98854.28
2023-05-08T23:35:23.030Z,98871.22
2023-05-08T23:37:49.363Z,98855.44
2023-05-08T23:40:15.698Z,98859.47
2023-05-08T23:42:42.024Z,98861.69
2023-05-08T23:45:08.775Z,98842.91
2023-05-08T23:47:35.098Z,98851.84
2023-05-08T23:50:01.432Z,98834.84
2023-05-08T23:52:27.749Z,98846.78
2023-05-08T23:54:54.161Z,98818.56
2023-05-08T23:57:20.518Z,98853.00
2023-05-08T23:59:46.843Z,98831.38
